Time;durP1;ratioP1;P1;durP2;ratioP2;P2;SDS_P1;SDS_P2;PMS_P1;PMS_P2;Temp;Humidity;BMP_temperature;BMP_pressure;BME280_temperature;BME280_humidity;BME280_pressure;Samples;Min_cycle;Max_cycle;Signal;HPM_P1;HPM_P2
2021/04/08 00:00:54;;;;;;;8.85;4.45;;;2.60;91.50;;;;;;5020912;28;20041;-51
2021/04/08 00:03:20;;;;;;;11.60;4.13;;;2.50;91.60;;;;;;5029893;28;20440;-54
2021/04/08 00:05:45;;;;;;;6.28;3.50;;;2.40;91.70;;;;;;5026095;28;20105;-58
2021/04/08 00:08:11;;;;;;;9.85;3.97;;;2.50;91.60;;;;;;5030101;28;20108;-54
2021/04/08 00:10:36;;;;;;;6.70;3.53;;;2.50;91.40;;;;;;5015085;28;20124;-54
2021/04/08 00:13:02;;;;;;;8.68;4.13;;;2.50;91.40;;;;;;5025458;28;20477;-56
2021/04/08 00:15:28;;;;;;;9.82;4.68;;;2.60;91.20;;;;;;5014620;28;20044;-54
2021/04/08 00:17:53;;;;;;;11.10;4.00;;;2.50;91.40;;;;;;5022800;28;20029;-59
2021/04/08 00:20:21;;;;;;;13.68;4.40;;;2.40;91.60;;;;;;5027085;28;20049;-55
2021/04/08 00:22:47;;;;;;;8.77;4.47;;;2.30;91.70;;;;;;5017140;28;20112;-55
2021/04/08 00:25:14;;;;;;;7.35;4.68;;;2.30;91.80;;;;;;5021405;28;20056;-55
2021/04/08 00:27:43;;;;;;;9.57;4.65;;;2.30;91.80;;;;;;5036676;28;20037;-52
2021/04/08 00:30:11;;;;;;;11.32;4.30;;;2.30;91.80;;;;;;5024927;28;20473;-53
2021/04/08 00:32:37;;;;;;;12.20;4.13;;;2.30;91.80;;;;;;5028203;28;20105;-56
2021/04/08 00:35:03;;;;;;;9.43;4.93;;;2.20;91.90;;;;;;5021507;28;20046;-53
2021/04/08 00:37:28;;;;;;;14.02;4.75;;;2.10;92.20;;;;;;5016671;28;20029;-56
2021/04/08 00:39:54;;;;;;;12.13;4.35;;;2.00;92.50;;;;;;5033518;28;20397;-54
2021/04/08 00:42:21;;;;;;;16.40;5.75;;;1.90;92.60;;;;;;5030513;28;20389;-54
2021/04/08 00:44:46;;;;;;;12.98;5.13;;;1.90;92.70;;;;;;5016287;28;20034;-55
2021/04/08 00:47:12;;;;;;;13.98;5.15;;;1.90;92.80;;;;;;5019443;28;20117;-56
2021/04/08 00:49:37;;;;;;;9.00;4.57;;;2.00;92.50;;;;;;5035670;28;20099;-53
2021/04/08 00:52:03;;;;;;;7.88;4.20;;;1.90;92.60;;;;;;5018310;28;20491;-53
2021/04/08 00:54:29;;;;;;;11.48;3.80;;;2.10;92.50;;;;;;5016142;28;20109;-52
2021/04/08 00:56:55;;;;;;;9.55;4.28;;;2.00;92.30;;;;;;5031050;28;20037;-57
2021/04/08 00:59:20;;;;;;;12.43;4.72;;;2.00;92.30;;;;;;5022206;28;20034;-53
2021/04/08 01:01:46;;;;;;;7.28;4.20;;;1.90;92.50;;;;;;5025038;28;20117;-53
2021/04/08 01:04:12;;;;;;;8.02;3.95;;;1.90;92.30;;;;;;5032802;28;20382;-56
2021/04/08 01:06:38;;;;;;;9.95;3.97;;;2.00;92.30;;;;;;5027959;28;20120;-53
2021/04/08 01:09:06;;;;;;;12.20;4.30;;;2.10;91.80;;;;;;5017341;28;20064;-51
2021/04/08 01:11:32;;;;;;;9.90;4.30;;;2.10;91.50;;;;;;5033503;28;20090;-56
2021/04/08 01:13:57;;;;;;;8.70;3.80;;;2.10;91.30;;;;;;5015538;28;20038;-52
2021/04/08 01:16:29;;;;;;;8.02;4.03;;;2.20;91.10;;;;;;5015378;28;20041;-54
2021/04/08 01:19:07;;;;;;;6.85;3.85;;;2.10;91.20;;;;;;5033723;28;20828;-52
2021/04/08 01:21:42;;;;;;;9.82;4.35;;;2.20;91.00;;;;;;5020882;28;20017;-56
2021/04/08 01:24:26;;;;;;;;;;;2.20;91.00;;;;;;5019308;28;20512;-55
2021/04/08 01:27:25;;;;;;;13.02;4.20;;;2.20;91.00;;;;;;5015183;28;20003;-56
2021/04/08 01:30:11;;;;;;;7.50;3.90;;;2.30;90.80;;;;;;5014858;28;20116;-56
2021/04/08 01:32:44;;;;;;;8.50;3.65;;;2.20;91.00;;;;;;5015265;28;20024;-56
2021/04/08 01:35:12;;;;;;;8.13;3.92;;;2.30;91.00;;;;;;5018479;28;20057;-57
2021/04/08 01:38:03;;;;;;;12.95;4.57;;;2.40;90.50;;;;;;5035030;28;20117;-56
2021/04/08 01:40:29;;;;;;;12.85;4.78;;;2.30;90.70;;;;;;4995808;28;20046;-55
2021/04/08 01:42:56;;;;;;;11.50;3.97;;;2.30;90.60;;;;;;4995749;28;20084;-55
2021/04/08 01:45:22;;;;;;;17.40;4.45;;;2.40;90.40;;;;;;5035287;28;20464;-57
2021/04/08 01:47:50;;;;;;;11.13;3.88;;;2.40;90.30;;;;;;5035430;28;20029;-57
2021/04/08 01:50:17;;;;;;;11.55;3.90;;;2.50;90.20;;;;;;5016474;28;20046;-57
2021/04/08 01:52:48;;;;;;;14.15;4.63;;;2.50;89.90;;;;;;5016009;28;20429;-51
2021/04/08 01:55:14;;;;;;;10.13;3.65;;;2.50;90.00;;;;;;5015766;28;20037;-51
2021/04/08 01:57:42;;;;;;;13.63;4.65;;;2.60;89.90;;;;;;5014928;28;20038;-59
2021/04/08 02:00:12;;;;;;;11.15;3.80;;;2.50;90.00;;;;;;5015477;28;20156;-53
2021/04/08 02:02:39;;;;;;;16.27;4.65;;;2.60;90.00;;;;;;5014773;28;20045;-56
2021/04/08 02:05:12;;;;;;;13.05;4.30;;;2.60;90.10;;;;;;5028251;28;20030;-54
2021/04/08 02:07:40;;;;;;;12.48;4.20;;;2.50;90.20;;;;;;5020019;28;20038;-54
2021/04/08 02:10:08;;;;;;;13.90;4.30;;;2.50;90.30;;;;;;5014280;28;20671;-51
2021/04/08 02:12:40;;;;;;;15.93;4.28;;;2.50;90.40;;;;;;5027510;28;20041;-56
2021/04/08 02:15:08;;;;;;;10.20;3.72;;;2.40;90.50;;;;;;5034622;28;20040;-53
2021/04/08 02:17:35;;;;;;;12.93;4.43;;;2.50;90.40;;;;;;5031630;28;20517;-57
2021/04/08 02:20:09;;;;;;;14.02;4.18;;;2.50;90.80;;;;;;5015872;28;20064;-56
2021/04/08 02:22:38;;;;;;;16.30;4.53;;;2.40;90.70;;;;;;5030664;28;20488;-59
2021/04/08 02:25:07;;;;;;;13.07;4.43;;;2.40;90.50;;;;;;5028107;28;20437;-55
2021/04/08 02:27:36;;;;;;;12.95;4.10;;;2.40;90.50;;;;;;5025452;28;20132;-55
2021/04/08 02:30:07;;;;;;;7.32;4.40;;;2.50;90.50;;;;;;5033826;28;20065;-53
2021/04/08 02:32:34;;;;;;;7.47;3.35;;;2.40;90.50;;;;;;5023881;28;20041;-54
2021/04/08 02:35:00;;;;;;;15.63;4.30;;;2.40;90.60;;;;;;5014825;28;20037;-52
2021/04/08 02:37:26;;;;;;;12.32;4.13;;;2.40;90.60;;;;;;5022224;28;20442;-58
2021/04/08 02:39:51;;;;;;;9.57;4.47;;;2.40;90.70;;;;;;5033954;28;20136;-55
2021/04/08 02:42:17;;;;;;;11.52;3.85;;;2.40;90.70;;;;;;5026665;28;20034;-58
2021/04/08 02:44:43;;;;;;;9.93;3.67;;;2.40;90.90;;;;;;5014834;28;20049;-54
2021/04/08 02:47:08;;;;;;;13.93;4.88;;;2.30;91.40;;;;;;5028128;28;20030;-52
2021/04/08 02:49:35;;;;;;;13.68;4.13;;;2.30;91.30;;;;;;5033530;28;20103;-56
2021/04/08 02:52:04;;;;;;;11.40;4.22;;;2.40;91.20;;;;;;5019765;28;20042;-55
2021/04/08 02:54:35;;;;;;;8.50;4.20;;;2.40;91.20;;;;;;5013254;28;20033;-54
2021/04/08 02:57:02;;;;;;;9.15;3.83;;;2.40;91.30;;;;;;5013674;28;20185;-52
2021/04/08 02:59:37;;;;;;;14.02;4.70;;;2.40;91.10;;;;;;5013708;28;20049;-52
2021/04/08 03:02:05;;;;;;;;;;;2.50;90.90;;;;;;5027270;28;20041;-56
2021/04/08 03:04:35;;;;;;;14.90;4.38;;;2.40;91.20;;;;;;5022835;28;19917;-54
2021/04/08 03:07:01;;;;;;;12.63;4.03;;;2.40;91.20;;;;;;5025203;28;20025;-56
2021/04/08 03:09:32;;;;;;;11.35;5.13;;;2.30;91.10;;;;;;5023318;28;20045;-55
2021/04/08 03:12:02;;;;;;;13.50;4.95;;;2.30;91.20;;;;;;5020007;28;20136;-55
2021/04/08 03:14:30;;;;;;;12.15;4.30;;;2.30;91.20;;;;;;5032444;28;20121;-55
2021/04/08 03:16:58;;;;;;;10.45;4.15;;;2.30;91.20;;;;;;5013883;28;20124;-57
2021/04/08 03:19:25;;;;;;;13.05;3.80;;;2.30;91.10;;;;;;5013137;28;20049;-57
2021/04/08 03:21:51;;;;;;;10.18;4.13;;;2.30;91.00;;;;;;5033438;28;20389;-55
2021/04/08 03:24:20;;;;;;;9.35;4.28;;;2.30;91.10;;;;;;5015364;28;20554;-56
2021/04/08 03:26:46;;;;;;;10.15;4.43;;;2.40;90.80;;;;;;5032628;28;20080;-57
2021/04/08 03:29:14;;;;;;;13.25;4.15;;;2.50;90.50;;;;;;5020690;28;20046;-55
2021/04/08 03:31:43;;;;;;;12.68;4.00;;;2.40;90.50;;;;;;5027960;28;20596;-54
2021/04/08 03:34:10;;;;;;;9.48;4.00;;;2.50;90.40;;;;;;5022020;28;20434;-57
2021/04/08 03:36:37;;;;;;;11.65;4.82;;;2.50;90.30;;;;;;5012777;28;20030;-56
2021/04/08 03:39:04;;;;;;;10.52;4.97;;;2.40;90.50;;;;;;5022053;28;20055;-55
2021/04/08 03:41:34;;;;;;;9.10;3.97;;;2.40;90.40;;;;;;5032569;28;20136;-53
2021/04/08 03:44:01;;;;;;;11.73;4.43;;;2.40;90.40;;;;;;5024415;28;20030;-56
2021/04/08 03:46:26;;;;;;;10.18;4.28;;;2.30;90.60;;;;;;5015548;28;20041;-57
2021/04/08 03:48:54;;;;;;;9.80;4.78;;;2.30;90.60;;;;;;5018335;28;20042;-56
2021/04/08 03:51:24;;;;;;;10.98;4.70;;;2.40;90.30;;;;;;5031866;28;20030;-57
2021/04/08 03:53:50;;;;;;;11.32;4.97;;;2.30;90.40;;;;;;5030354;28;20099;-53
2021/04/08 03:56:17;;;;;;;11.32;5.15;;;2.30;90.40;;;;;;5021481;28;20376;-56
2021/04/08 03:58:43;;;;;;;8.82;4.38;;;2.30;90.30;;;;;;5012225;28;20044;-59
2021/04/08 04:01:10;;;;;;;12.18;5.28;;;2.20;90.50;;;;;;5012099;28;20042;-58
2021/04/08 04:03:37;;;;;;;9.88;4.53;;;2.20;90.60;;;;;;5015735;28;20037;-54
2021/04/08 04:06:03;;;;;;;13.00;4.68;;;2.30;90.50;;;;;;5032219;28;20029;-52
2021/04/08 04:08:28;;;;;;;12.45;4.25;;;2.20;90.40;;;;;;5027586;28;20121;-55
2021/04/08 04:10:54;;;;;;;10.90;4.18;;;2.20;90.40;;;;;;5031847;28;20465;-55
2021/04/08 04:13:22;;;;;;;11.27;4.28;;;2.20;90.50;;;;;;5020798;28;20490;-55
2021/04/08 04:15:50;;;;;;;15.55;5.60;;;2.20;90.60;;;;;;5012228;28;20030;-57
2021/04/08 04:18:17;;;;;;;9.98;4.82;;;2.10;90.80;;;;;;5013295;28;20036;-56
2021/04/08 04:20:44;;;;;;;15.50;4.80;;;2.10;90.90;;;;;;5012641;28;20030;-55
2021/04/08 04:23:09;;;;;;;15.52;5.53;;;2.10;90.90;;;;;;5016638;28;20084;-57
2021/04/08 04:25:35;;;;;;;13.77;5.47;;;2.00;91.10;;;;;;5012285;28;20452;-57
2021/04/08 04:28:01;;;;;;;10.55;4.55;;;2.10;91.10;;;;;;5031745;28;20452;-56
2021/04/08 04:30:26;;;;;;;9.73;4.72;;;2.00;91.20;;;;;;5031903;28;20053;-57
2021/04/08 04:32:55;;;;;;;11.35;5.13;;;2.00;91.30;;;;;;5012966;28;20109;-56
2021/04/08 04:35:21;;;;;;;10.15;5.25;;;1.90;91.50;;;;;;5028553;28;20033;-57
2021/04/08 04:37:47;;;;;;;15.95;5.38;;;2.00;91.40;;;;;;5031747;28;20108;-52
2021/04/08 04:40:13;;;;;;;12.10;5.20;;;2.00;91.40;;;;;;5029441;28;20044;-57
2021/04/08 04:42:39;;;;;;;10.23;5.03;;;2.00;91.50;;;;;;5027093;28;20519;-54
2021/04/08 04:45:05;;;;;;;11.00;5.40;;;2.00;91.50;;;;;;5012547;28;20077;-55
2021/04/08 04:47:32;;;;;;;14.55;5.78;;;2.00;91.40;;;;;;5023105;28;20163;-57
2021/04/08 04:49:57;;;;;;;12.45;5.55;;;1.90;91.70;;;;;;5031201;28;20098;-52
2021/04/08 04:52:23;;;;;;;10.68;5.68;;;2.00;91.70;;;;;;5025873;28;20117;-58
2021/04/08 04:54:49;;;;;;;13.88;4.95;;;2.00;91.70;;;;;;5018253;28;20033;-56
2021/04/08 04:57:14;;;;;;;17.08;5.75;;;2.00;91.70;;;;;;5022036;28;20113;-57
2021/04/08 04:59:40;;;;;;;13.40;6.20;;;2.00;91.70;;;;;;5015309;28;20034;-55
2021/04/08 05:02:06;;;;;;;11.95;6.25;;;2.00;91.70;;;;;;5025633;28;20499;-57
2021/04/08 05:04:31;;;;;;;13.02;5.80;;;2.20;91.50;;;;;;5031539;28;20076;-53
2021/04/08 05:06:57;;;;;;;15.15;6.25;;;2.10;91.50;;;;;;5021262;28;20116;-57
2021/04/08 05:09:23;;;;;;;14.68;5.80;;;2.10;91.70;;;;;;5015280;28;20038;-57
2021/04/08 05:11:48;;;;;;;13.50;6.07;;;2.00;92.00;;;;;;5025784;28;20037;-53
2021/04/08 05:14:14;;;;;;;18.98;6.50;;;1.90;92.20;;;;;;5035645;28;20037;-55
2021/04/08 05:16:39;;;;;;;15.75;7.20;;;2.00;92.10;;;;;;5035156;28;20021;-54
2021/04/08 05:19:05;;;;;;;18.85;6.93;;;2.00;92.10;;;;;;5035066;28;20040;-54
2021/04/08 05:21:30;;;;;;;17.38;6.32;;;1.90;92.10;;;;;;5034941;28;20041;-56
2021/04/08 05:23:56;;;;;;;16.15;6.75;;;2.00;92.10;;;;;;5020423;28;20045;-57
2021/04/08 05:26:22;;;;;;;18.30;6.97;;;2.00;91.90;;;;;;5026428;28;20104;-56
2021/04/08 05:28:47;;;;;;;15.25;5.97;;;2.10;91.60;;;;;;5014810;28;20104;-59
2021/04/08 05:31:13;;;;;;;15.93;6.90;;;2.20;91.40;;;;;;5030218;28;20037;-56
2021/04/08 05:33:38;;;;;;;11.40;5.78;;;2.10;91.20;;;;;;5035293;28;20045;-52
2021/04/08 05:36:04;;;;;;;13.75;5.22;;;2.10;91.20;;;;;;5020881;28;20462;-56
2021/04/08 05:38:30;;;;;;;12.57;5.38;;;2.10;91.10;;;;;;5014750;28;20076;-56
2021/04/08 05:40:55;;;;;;;13.32;6.25;;;2.20;91.00;;;;;;5033211;28;20493;-58
2021/04/08 05:43:21;;;;;;;14.70;6.05;;;2.30;90.70;;;;;;5034611;28;20363;-54
2021/04/08 05:45:47;;;;;;;10.13;6.07;;;2.10;91.00;;;;;;5019784;28;20635;-56
2021/04/08 05:48:15;;;;;;;16.00;5.82;;;2.10;91.00;;;;;;5025570;28;20073;-53
2021/04/08 05:50:41;;;;;;;14.60;5.80;;;2.20;91.00;;;;;;5014813;28;20034;-55
2021/04/08 05:53:07;;;;;;;14.55;6.22;;;2.20;91.00;;;;;;5023403;28;20038;-57
2021/04/08 05:55:33;;;;;;;12.63;6.38;;;2.20;90.80;;;;;;5034236;28;20499;-55
2021/04/08 05:57:59;;;;;;;13.52;6.50;;;2.10;91.10;;;;;;5028894;28;20113;-55
2021/04/08 06:00:24;;;;;;;13.60;6.70;;;2.00;91.40;;;;;;5014927;28;20500;-57
2021/04/08 06:02:50;;;;;;;20.70;6.40;;;2.10;91.20;;;;;;5018782;28;20045;-60
2021/04/08 06:05:16;;;;;;;11.70;6.32;;;2.10;91.40;;;;;;5035511;28;20041;-53
2021/04/08 06:07:42;;;;;;;20.48;6.75;;;2.30;91.00;;;;;;5030971;28;20030;-53
2021/04/08 06:10:09;;;;;;;15.18;5.70;;;2.40;90.90;;;;;;5024086;28;20494;-59
2021/04/08 06:12:38;;;;;;;15.90;6.38;;;2.50;90.70;;;;;;5032660;28;20079;-54
2021/04/08 06:15:04;;;;;;;19.23;6.90;;;2.40;90.40;;;;;;5015176;28;20509;-57
2021/04/08 06:17:30;;;;;;;17.30;5.75;;;2.50;90.60;;;;;;5033164;28;20073;-56
2021/04/08 06:19:56;;;;;;;14.68;6.38;;;2.60;90.40;;;;;;5033641;28;20064;-57
2021/04/08 06:22:21;;;;;;;12.57;6.30;;;2.60;90.10;;;;;;5011907;28;20129;-56
2021/04/08 06:24:47;;;;;;;15.13;6.47;;;2.70;90.00;;;;;;5014505;28;20393;-59
2021/04/08 06:27:12;;;;;;;17.92;5.90;;;2.60;90.10;;;;;;5032227;28;20041;-59
2021/04/08 06:29:38;;;;;;;9.95;5.38;;;2.70;90.00;;;;;;5033234;28;20029;-54
2021/04/08 06:32:04;;;;;;;12.93;5.50;;;2.80;89.00;;;;;;5020917;28;20038;-57
2021/04/08 06:34:30;;;;;;;13.32;6.07;;;3.00;88.60;;;;;;5027273;28;20034;-55
2021/04/08 06:36:55;;;;;;;11.93;5.57;;;3.00;88.30;;;;;;5034853;28;20037;-55
2021/04/08 06:39:21;;;;;;;12.60;5.60;;;2.90;87.90;;;;;;5022489;28;20038;-56
2021/04/08 06:41:47;;;;;;;13.38;6.03;;;3.00;87.90;;;;;;5014431;28;20030;-56
2021/04/08 06:44:16;;;;;;;13.18;7.20;;;3.00;87.60;;;;;;5014279;28;20038;-54
2021/04/08 06:46:43;;;;;;;15.43;5.82;;;3.10;87.70;;;;;;5014117;28;20030;-57
2021/04/08 06:49:27;;;;;;;17.10;5.50;;;3.20;87.40;;;;;;5021701;28;20037;-56
2021/04/08 06:51:56;;;;;;;19.75;6.22;;;3.30;86.90;;;;;;5034319;28;20040;-56
2021/04/08 06:54:23;;;;;;;14.30;5.78;;;3.40;86.10;;;;;;5025990;28;20052;-58
2021/04/08 06:56:50;;;;;;;11.95;5.22;;;3.40;85.70;;;;;;5015366;28;20021;-55
2021/04/08 06:59:16;;;;;;;11.80;6.38;;;3.40;85.90;;;;;;5013309;28;20444;-58
2021/04/08 07:01:44;;;;;;;15.73;6.28;;;3.40;85.80;;;;;;5027365;28;20049;-57
2021/04/08 07:04:11;;;;;;;14.40;5.32;;;3.40;86.00;;;;;;5026186;28;20034;-58
2021/04/08 07:06:36;;;;;;;14.63;5.68;;;3.50;85.80;;;;;;5013407;28;20065;-57
2021/04/08 07:09:05;;;;;;;13.27;5.30;;;3.50;85.00;;;;;;5018305;28;20033;-57
2021/04/08 07:11:32;;;;;;;16.15;6.57;;;3.70;84.80;;;;;;5033154;28;20037;-57
2021/04/08 07:13:59;;;;;;;13.15;6.13;;;3.70;84.50;;;;;;5029587;28;20041;-57
2021/04/08 07:16:25;;;;;;;12.68;4.70;;;3.60;84.00;;;;;;5013406;28;20042;-55
2021/04/08 07:18:52;;;;;;;12.57;5.47;;;3.70;84.00;;;;;;5014480;28;20077;-57
2021/04/08 07:21:18;;;;;;;11.52;5.40;;;3.70;82.60;;;;;;5013108;28;20030;-57
2021/04/08 07:24:06;;;;;;;13.52;6.22;;;3.90;83.00;;;;;;5013828;28;20037;-55
2021/04/08 07:26:31;;;;;;;10.32;4.53;;;4.00;81.70;;;;;;4993919;28;20516;-54
2021/04/08 07:28:57;;;;;;;10.68;4.57;;;4.20;80.40;;;;;;4996457;28;20077;-57
2021/04/08 07:31:24;;;;;;;12.40;4.75;;;3.90;80.60;;;;;;5032706;28;20040;-59
2021/04/08 07:33:51;;;;;;;9.20;4.45;;;3.80;81.10;;;;;;5032748;28;20025;-56
2021/04/08 07:36:26;;;;;;;10.07;4.60;;;4.00;81.00;;;;;;5030779;28;20075;-56
2021/04/08 07:38:51;;;;;;;10.02;3.80;;;4.00;79.90;;;;;;5016407;28;20045;-54
2021/04/08 07:41:26;;;;;;;9.88;4.18;;;4.10;79.70;;;;;;5031618;28;20034;-53
2021/04/08 07:44:02;;;;;;;7.90;4.65;;;4.20;80.60;;;;;;5010728;28;20049;-57
2021/04/08 07:46:38;;;;;;;9.80;5.10;;;4.40;80.10;;;;;;5010118;28;20033;-58
2021/04/08 07:49:05;;;;;;;12.48;5.03;;;4.40;81.10;;;;;;5011998;28;20037;-55
2021/04/08 07:51:33;;;;;;;9.90;4.47;;;4.60;79.10;;;;;;5014317;28;20029;-55
2021/04/08 07:54:13;;;;;;;14.15;4.88;;;4.40;80.00;;;;;;5012191;28;20382;-58
2021/04/08 07:56:39;;;;;;;12.73;5.50;;;4.50;78.30;;;;;;5010954;28;20026;-56
2021/04/08 07:59:19;;;;;;;10.52;5.43;;;4.60;78.50;;;;;;5012836;28;20401;-57
2021/04/08 08:01:47;;;;;;;12.75;5.45;;;4.60;78.70;;;;;;5017835;28;20060;-58
2021/04/08 08:04:20;;;;;;;16.15;5.30;;;4.50;78.70;;;;;;5024468;28;20119;-56
2021/04/08 08:06:47;;;;;;;10.40;4.70;;;4.40;79.00;;;;;;5012889;28;20050;-55
2021/04/08 08:09:12;;;;;;;9.30;4.45;;;4.40;79.40;;;;;;5030228;28;20397;-56
2021/04/08 08:11:41;;;;;;;11.05;4.65;;;4.20;80.00;;;;;;5012709;28;20041;-61
2021/04/08 08:14:08;;;;;;;8.93;4.28;;;4.10;80.80;;;;;;5023153;28;20037;-56
2021/04/08 08:16:35;;;;;;;13.85;5.38;;;4.20;81.00;;;;;;5017878;28;20030;-52
2021/04/08 08:19:02;;;;;;;14.95;6.90;;;4.20;81.30;;;;;;5012159;28;20076;-56
2021/04/08 08:21:27;;;;;;;15.30;5.28;;;4.10;81.90;;;;;;5027201;28;20048;-57
2021/04/08 08:23:55;;;;;;;11.68;5.47;;;4.00;81.90;;;;;;5031616;28;20392;-54
2021/04/08 08:26:28;;;;;;;9.82;4.70;;;3.90;81.60;;;;;;5028153;28;20030;-54
2021/04/08 08:29:16;;;;;;;7.90;4.65;;;3.80;82.20;;;;;;5020639;28;20041;-57
2021/04/08 08:31:56;;;;;;;7.22;4.35;;;4.00;83.40;;;;;;5030172;28;20046;-59
2021/04/08 08:34:29;;;;;;;12.90;4.95;;;4.20;82.00;;;;;;5025880;28;20044;-58
2021/04/08 08:36:58;;;;;;;11.63;4.70;;;4.00;82.00;;;;;;5012325;28;20022;-57
2021/04/08 08:39:32;;;;;;;10.93;4.60;;;4.20;82.40;;;;;;5012089;28;20046;-58
2021/04/08 08:41:59;;;;;;;7.43;4.20;;;4.50;80.60;;;;;;5014066;28;20113;-56
2021/04/08 08:44:26;;;;;;;5.88;4.03;;;4.60;79.40;;;;;;5031165;28;20037;-53
2021/04/08 08:47:12;;;;;;;8.55;4.35;;;4.70;79.30;;;;;;5036011;28;20034;-56
2021/04/08 08:49:42;;;;;;;6.20;4.28;;;5.10;78.20;;;;;;5016687;28;20033;-59
2021/04/08 08:52:10;;;;;;;9.68;4.22;;;5.00;75.10;;;;;;5018231;28;20048;-55
2021/04/08 08:54:36;;;;;;;9.77;4.38;;;4.80;76.70;;;;;;5021071;28;20029;-59
2021/04/08 08:57:04;;;;;;;10.88;3.75;;;5.10;77.50;;;;;;5019826;28;20137;-56
2021/04/08 08:59:30;;;;;;;8.18;4.75;;;5.00;75.70;;;;;;5017581;28;20044;-58
2021/04/08 09:01:57;;;;;;;6.40;3.60;;;4.90;76.20;;;;;;5016988;28;20037;-56
2021/04/08 09:04:23;;;;;;;9.02;4.10;;;4.80;76.60;;;;;;5029877;28;20088;-55
2021/04/08 09:06:49;;;;;;;11.68;4.30;;;4.70;77.50;;;;;;5034576;28;20030;-56
2021/04/08 09:09:18;;;;;;;7.50;3.53;;;4.80;78.80;;;;;;5026093;28;20144;-57
2021/04/08 09:11:45;;;;;;;10.57;3.60;;;4.90;78.90;;;;;;5034585;28;20040;-55
2021/04/08 09:14:11;;;;;;;8.13;4.00;;;4.90;78.20;;;;;;5026036;28;20041;-56
2021/04/08 09:16:46;;;;;;;11.05;3.88;;;4.90;78.40;;;;;;5025309;28;20093;-58
2021/04/08 09:19:13;;;;;;;;;;;4.90;77.70;;;;;;5034856;28;20449;-60
2021/04/08 09:21:53;;;;;;;9.45;3.45;;;4.90;77.60;;;;;;5026674;28;19913;-60
2021/04/08 09:24:38;;;;;;;9.35;3.72;;;4.90;76.70;;;;;;5015091;28;20049;-61
2021/04/08 09:27:04;;;;;;;;;;;5.00;75.80;;;;;;5025680;28;20459;-57
2021/04/08 09:29:37;;;;;;;9.88;3.15;;;5.30;74.60;;;;;;5030992;28;19924;-59
2021/04/08 09:32:22;;;;;;;4.40;3.20;;;5.40;73.40;;;;;;5014870;28;20054;-60
2021/04/08 09:35:06;;;;;;;8.40;3.60;;;5.40;73.20;;;;;;5018871;28;20036;-60
2021/04/08 09:37:44;;;;;;;12.65;3.85;;;5.30;73.80;;;;;;5035739;28;20061;-60
2021/04/08 09:40:32;;;;;;;12.82;3.95;;;5.40;77.00;;;;;;5023045;28;20037;-62
2021/04/08 09:43:05;;;;;;;9.23;3.70;;;5.50;72.30;;;;;;5015030;28;20092;-61
2021/04/08 09:45:32;;;;;;;9.32;3.58;;;5.10;73.20;;;;;;5028331;28;20073;-61
2021/04/08 09:48:21;;;;;;;11.35;3.58;;;5.00;74.70;;;;;;5014262;28;20096;-59
2021/04/08 09:51:00;;;;;;;10.25;4.18;;;4.90;75.70;;;;;;5029455;28;20022;-60
2021/04/08 09:53:48;;;;;;;6.70;3.53;;;4.90;76.40;;;;;;5014402;28;20478;-60
2021/04/08 09:56:14;;;;;;;9.27;3.70;;;5.00;76.10;;;;;;5012417;28;20044;-59
2021/04/08 09:58:40;;;;;;;6.60;3.47;;;5.00;76.30;;;;;;5020754;28;20113;-60
2021/04/08 10:01:10;;;;;;;9.25;3.63;;;5.10;75.30;;;;;;5015679;28;20494;-60
2021/04/08 10:03:38;;;;;;;9.05;3.58;;;5.30;76.60;;;;;;5033271;28;20456;-61
2021/04/08 10:06:23;;;;;;;9.93;4.38;;;5.40;75.70;;;;;;5030280;28;20060;-60
2021/04/08 10:08:49;;;;;;;9.15;4.88;;;5.50;75.40;;;;;;5016277;28;20037;-60
2021/04/08 10:11:25;;;;;;;7.60;4.30;;;5.50;73.60;;;;;;5034089;28;20065;-63
2021/04/08 10:13:51;;;;;;;7.55;3.10;;;5.30;74.70;;;;;;5028970;28;20022;-62
2021/04/08 10:16:16;;;;;;;10.35;3.50;;;5.30;72.90;;;;;;5014633;28;20076;-63
2021/04/08 10:18:44;;;;;;;7.55;3.95;;;5.10;72.70;;;;;;5031407;28;20029;-60
2021/04/08 10:21:12;;;;;;;9.10;3.50;;;5.20;73.60;;;;;;5032234;28;20042;-61
2021/04/08 10:23:49;;;;;;;6.57;3.70;;;5.50;73.10;;;;;;5014457;28;20058;-62
2021/04/08 10:26:15;;;;;;;7.40;4.15;;;5.70;72.60;;;;;;5015483;28;20050;-61
2021/04/08 10:28:42;;;;;;;9.23;4.18;;;5.80;71.70;;;;;;5034097;28;20068;-61
2021/04/08 10:31:26;;;;;;;6.47;4.15;;;5.90;72.40;;;;;;5033976;28;20026;-61
2021/04/08 10:34:05;;;;;;;6.70;3.90;;;6.10;73.60;;;;;;5028371;28;20021;-63
2021/04/08 10:36:32;;;;;;;10.70;4.15;;;6.00;73.30;;;;;;5031147;28;20052;-61
2021/04/08 10:39:08;;;;;;;6.50;3.78;;;5.70;73.60;;;;;;5013904;28;20065;-60
2021/04/08 10:41:34;;;;;;;8.45;3.95;;;5.70;74.50;;;;;;5015068;28;20038;-63
2021/04/08 10:44:26;;;;;;;6.32;3.78;;;6.10;73.50;;;;;;5026612;28;20038;-61
2021/04/08 10:46:53;;;;;;;8.10;4.20;;;5.80;73.00;;;;;;5025574;28;20018;-62
2021/04/08 10:49:25;;;;;;;9.25;3.95;;;5.80;73.50;;;;;;5014037;28;20041;-60
2021/04/08 10:51:52;;;;;;;8.93;3.85;;;5.80;73.20;;;;;;5023775;28;20022;-60
2021/04/08 10:54:18;;;;;;;6.38;3.95;;;5.80;73.00;;;;;;5022466;28;20445;-60
2021/04/08 10:56:48;;;;;;;7.25;3.83;;;5.80;72.20;;;;;;5024965;28;20065;-60
2021/04/08 10:59:24;;;;;;;9.18;3.97;;;6.20;70.40;;;;;;5017816;28;20124;-61
2021/04/08 11:01:51;;;;;;;10.52;3.97;;;6.30;69.50;;;;;;5011952;28;20048;-61
2021/04/08 11:04:21;;;;;;;9.48;3.47;;;6.10;68.10;;;;;;5031968;28;20105;-60
2021/04/08 11:06:49;;;;;;;4.75;3.60;;;6.10;68.10;;;;;;5018905;28;20083;-61
2021/04/08 11:09:27;;;;;;;7.25;3.33;;;6.10;68.90;;;;;;5013665;28;20099;-61
2021/04/08 11:11:54;;;;;;;11.48;4.20;;;6.20;67.40;;;;;;5020200;28;20117;-61
2021/04/08 11:14:24;;;;;;;9.55;3.60;;;6.10;66.50;;;;;;5018342;28;20030;-59
2021/04/08 11:16:53;;;;;;;8.80;3.10;;;6.30;66.50;;;;;;5024856;28;20026;-61
2021/04/08 11:19:20;;;;;;;6.03;3.53;;;6.30;65.60;;;;;;5011040;28;20057;-61
2021/04/08 11:21:47;;;;;;;7.03;3.63;;;6.40;65.70;;;;;;5016601;28;20041;-61
2021/04/08 11:24:14;;;;;;;6.32;3.22;;;6.20;63.80;;;;;;5013957;28;20033;-59
2021/04/08 11:26:51;;;;;;;5.72;3.05;;;5.70;65.80;;;;;;5015828;28;20038;-61
2021/04/08 11:29:25;;;;;;;5.82;2.83;;;5.70;66.40;;;;;;5022877;28;20041;-60
2021/04/08 11:32:10;;;;;;;8.23;3.35;;;5.80;67.40;;;;;;5021346;28;20021;-61
2021/04/08 11:34:43;;;;;;;6.30;2.90;;;6.00;66.70;;;;;;5021729;28;20036;-60
2021/04/08 11:37:09;;;;;;;8.32;3.97;;;5.90;66.90;;;;;;5024664;28;20029;-62
2021/04/08 11:39:35;;;;;;;8.95;3.53;;;5.80;68.10;;;;;;5022944;28;20052;-60
2021/04/08 11:42:19;;;;;;;7.00;4.03;;;5.60;68.70;;;;;;5020772;28;20393;-61
2021/04/08 11:44:46;;;;;;;7.10;3.50;;;5.60;68.10;;;;;;5021431;28;20401;-60
2021/04/08 11:47:22;;;;;;;9.95;3.85;;;5.50;69.10;;;;;;5022030;28;20033;-58
2021/04/08 11:49:53;;;;;;;7.18;3.90;;;5.50;69.80;;;;;;5020636;28;20184;-61
2021/04/08 11:52:22;;;;;;;8.13;4.47;;;5.50;70.10;;;;;;5020968;28;20536;-60
2021/04/08 11:54:56;;;;;;;6.43;3.85;;;5.50;70.30;;;;;;5022764;28;20038;-60
2021/04/08 11:57:23;;;;;;;;;;;5.60;70.60;;;;;;5021465;28;20164;-56
2021/04/08 11:59:49;;;;;;;6.53;3.53;;;5.70;69.60;;;;;;5021307;28;19920;-61
2021/04/08 12:02:28;;;;;;;10.57;3.33;;;5.80;69.20;;;;;;5020807;28;20037;-61
2021/04/08 12:04:53;;;;;;;7.68;3.92;;;5.70;68.80;;;;;;5021064;28;20033;-58
2021/04/08 12:07:19;;;;;;;9.18;3.45;;;5.90;68.10;;;;;;5021827;28;20105;-61
2021/04/08 12:09:47;;;;;;;7.63;3.80;;;6.00;68.00;;;;;;5021509;28;20521;-61
2021/04/08 12:12:13;;;;;;;7.72;3.47;;;6.10;68.40;;;;;;5020537;28;20029;-61
2021/04/08 12:14:51;;;;;;;7.90;3.85;;;6.10;67.50;;;;;;5019594;28;20401;-60
2021/04/08 12:17:17;;;;;;;6.90;3.78;;;6.10;67.60;;;;;;5021452;28;20083;-60
2021/04/08 12:19:42;;;;;;;9.55;4.40;;;6.20;67.90;;;;;;5021466;28;20038;-61
2021/04/08 12:22:11;;;;;;;8.10;3.88;;;6.30;67.70;;;;;;5021286;28;20076;-61
2021/04/08 12:24:37;;;;;;;7.32;4.20;;;6.50;67.30;;;;;;5021135;28;20057;-60
2021/04/08 12:27:15;;;;;;;7.90;4.43;;;6.10;68.30;;;;;;5019303;28;20057;-60
2021/04/08 12:29:40;;;;;;;8.32;4.18;;;6.20;68.10;;;;;;5020369;28;20042;-61
2021/04/08 12:32:06;;;;;;;8.20;4.40;;;6.50;67.20;;;;;;5020530;28;20111;-61
2021/04/08 12:34:31;;;;;;;9.07;4.32;;;6.60;67.00;;;;;;5020795;28;20033;-61
2021/04/08 12:36:58;;;;;;;8.00;4.80;;;6.70;66.60;;;;;;5021496;28;20454;-61
2021/04/08 12:39:24;;;;;;;9.27;4.22;;;6.90;66.20;;;;;;5019810;28;20042;-60
2021/04/08 12:41:49;;;;;;;10.05;3.60;;;6.90;65.60;;;;;;5020687;28;20041;-60
2021/04/08 12:44:15;;;;;;;6.25;3.35;;;6.90;62.20;;;;;;5020861;28;20026;-61
2021/04/08 12:46:40;;;;;;;7.05;3.55;;;6.90;60.10;;;;;;5020947;28;20505;-62
2021/04/08 12:49:06;;;;;;;7.10;4.35;;;7.00;61.30;;;;;;5020655;28;20034;-61
2021/04/08 12:51:32;;;;;;;7.43;3.58;;;6.80;62.30;;;;;;5020697;28;20029;-59
2021/04/08 12:53:57;;;;;;;5.18;3.50;;;6.90;62.90;;;;;;5012391;28;20030;-61
2021/04/08 12:56:24;;;;;;;9.02;4.25;;;6.80;61.00;;;;;;5017833;28;20044;-61
2021/04/08 12:58:50;;;;;;;9.57;4.00;;;6.90;61.10;;;;;;5022452;28;20105;-60
2021/04/08 13:01:16;;;;;;;5.82;3.65;;;6.70;61.30;;;;;;5016457;28;20021;-60